Time;durP1;ratioP1;P1;durP2;ratioP2;P2;SDS_P1;SDS_P2;PMS_P1;PMS_P2;Temp;Humidity;BMP_temperature;BMP_pressure;BME280_temperature;BME280_humidity;BME280_pressure;Samples;Min_cycle;Max_cycle;Signal;HPM_P1;HPM_P2
2021/07/06 00:00:11;;;;;;;2.60;0.90;;;;;;;;;;4992747;28;20034;-77
2021/07/06 00:02:37;;;;;;;2.17;0.90;;;;;;;;;;4999927;28;20035;-77
2021/07/06 00:05:04;;;;;;;1.05;0.80;;;;;;;;;;4999516;28;20018;-76
2021/07/06 00:07:30;;;;;;;4.57;0.70;;;;;;;;;;4970454;28;20029;-77
2021/07/06 00:09:57;;;;;;;2.65;0.75;;;;;;;;;;4970298;28;20121;-76
2021/07/06 00:12:23;;;;;;;5.20;0.70;;;;;;;;;;4972563;28;20141;-77
2021/07/06 00:14:49;;;;;;;2.30;0.70;;;;;;;;;;4969934;28;20027;-77
2021/07/06 00:17:15;;;;;;;2.25;0.73;;;;;;;;;;4983717;28;20126;-76
2021/07/06 00:19:41;;;;;;;1.88;0.70;;;;;;;;;;4988272;28;20037;-77
2021/07/06 00:22:08;;;;;;;1.77;0.82;;;;;;;;;;4989544;28;20034;-77
2021/07/06 00:24:34;;;;;;;1.00;0.60;;;;;;;;;;4988350;28;20037;-76
2021/07/06 00:27:01;;;;;;;2.08;0.75;;;;;;;;;;4989998;28;20037;-77
2021/07/06 00:29:27;;;;;;;2.58;0.88;;;;;;;;;;4988924;28;20014;-76
2021/07/06 00:31:53;;;;;;;2.97;0.70;;;;;;;;;;4972210;28;20470;-77
2021/07/06 00:34:19;;;;;;;2.72;0.80;;;;;;;;;;4974311;28;20030;-76
2021/07/06 00:36:45;;;;;;;1.42;0.80;;;;;;;;;;4991138;28;20026;-77
2021/07/06 00:39:11;;;;;;;1.58;0.82;;;;;;;;;;4975672;28;20444;-77
2021/07/06 00:41:39;;;;;;;2.83;0.70;;;;;;;;;;4954939;28;20046;-77
2021/07/06 00:44:05;;;;;;;1.60;0.93;;;;;;;;;;4956505;28;20381;-77
2021/07/06 00:46:32;;;;;;;3.33;1.00;;;;;;;;;;4973081;28;20036;-77
2021/07/06 00:48:58;;;;;;;2.25;0.88;;;;;;;;;;4972395;28;20050;-77
2021/07/06 00:51:23;;;;;;;1.35;1.13;;;;;;;;;;4974907;28;20034;-77
2021/07/06 00:53:51;;;;;;;2.08;0.95;;;;;;;;;;4972708;28;20066;-77
2021/07/06 00:56:17;;;;;;;7.00;1.10;;;;;;;;;;4981722;28;20398;-77
2021/07/06 00:58:47;;;;;;;2.08;1.10;;;;;;;;;;4963046;28;20518;-77
2021/07/06 01:01:13;;;;;;;1.70;0.98;;;;;;;;;;4971912;28;20386;-78
2021/07/06 01:03:39;;;;;;;3.95;1.15;;;;;;;;;;4972293;28;20061;-77
2021/07/06 01:06:05;;;;;;;4.93;1.00;;;;;;;;;;4955307;28;20035;-77
2021/07/06 01:08:31;;;;;;;2.30;0.88;;;;;;;;;;4971212;28;20145;-77
2021/07/06 01:10:58;;;;;;;4.22;1.15;;;;;;;;;;4952582;28;20951;-77
2021/07/06 01:13:24;;;;;;;3.83;1.17;;;;;;;;;;4971714;28;20042;-77
2021/07/06 01:15:50;;;;;;;5.05;1.02;;;;;;;;;;4969837;28;20488;-77
2021/07/06 01:18:18;;;;;;;5.03;1.08;;;;;;;;;;4951983;29;20027;-78
2021/07/06 01:20:54;;;;;;;6.30;1.20;;;;;;;;;;4952516;29;20023;-77
2021/07/06 01:23:21;;;;;;;3.85;1.10;;;;;;;;;;4969988;28;20030;-77
2021/07/06 01:25:48;;;;;;;3.35;1.08;;;;;;;;;;4971872;28;20007;-76
2021/07/06 01:28:15;;;;;;;3.97;0.98;;;;;;;;;;4969427;28;20495;-77
2021/07/06 01:30:41;;;;;;;5.43;0.90;;;;;;;;;;4967831;28;20534;-77
2021/07/06 01:33:07;;;;;;;3.05;1.00;;;;;;;;;;4968534;28;20079;-76
2021/07/06 01:35:34;;;;;;;1.65;1.15;;;;;;;;;;4969330;28;20557;-76
2021/07/06 01:38:01;;;;;;;5.75;1.13;;;;;;;;;;4968524;28;20058;-77
2021/07/06 01:40:27;;;;;;;3.35;1.10;;;;;;;;;;4968657;28;20023;-76
2021/07/06 01:42:55;;;;;;;3.72;0.80;;;;;;;;;;4969657;28;20082;-76
2021/07/06 01:45:22;;;;;;;1.27;0.85;;;;;;;;;;4968857;28;20106;-77
2021/07/06 01:47:50;;;;;;;3.65;1.10;;;;;;;;;;4952099;28;20110;-76
2021/07/06 01:50:18;;;;;;;2.25;0.98;;;;;;;;;;4969321;28;20118;-77
2021/07/06 01:52:45;;;;;;;1.52;1.05;;;;;;;;;;4969069;28;20035;-77
2021/07/06 01:55:12;;;;;;;2.35;1.65;;;;;;;;;;4969774;28;20030;-76
2021/07/06 01:57:39;;;;;;;1.75;0.93;;;;;;;;;;4986212;28;20569;-77
2021/07/06 02:00:06;;;;;;;1.08;0.68;;;;;;;;;;4953094;28;20030;-77
2021/07/06 02:02:32;;;;;;;1.92;1.00;;;;;;;;;;4972310;28;20090;-76
2021/07/06 02:05:03;;;;;;;6.15;0.93;;;;;;;;;;4951662;28;20448;-77
2021/07/06 02:07:29;;;;;;;4.93;1.42;;;;;;;;;;4968498;28;20126;-77
2021/07/06 02:09:54;;;;;;;3.28;1.00;;;;;;;;;;4954868;28;20042;-76
2021/07/06 02:12:20;;;;;;;1.42;1.00;;;;;;;;;;4973324;28;20657;-77
2021/07/06 02:14:47;;;;;;;18.42;1.20;;;;;;;;;;4973741;28;20074;-77
2021/07/06 02:17:13;;;;;;;2.17;0.95;;;;;;;;;;4972775;28;20699;-77
2021/07/06 02:19:39;;;;;;;1.58;1.05;;;;;;;;;;4972077;28;20042;-77
2021/07/06 02:22:05;;;;;;;2.60;1.08;;;;;;;;;;4972575;28;20049;-77
2021/07/06 02:24:31;;;;;;;1.33;0.85;;;;;;;;;;4974391;28;20105;-78
2021/07/06 02:26:58;;;;;;;1.20;0.90;;;;;;;;;;4969823;28;20793;-77
2021/07/06 02:29:24;;;;;;;3.60;0.93;;;;;;;;;;4974857;28;20033;-77
2021/07/06 02:31:50;;;;;;;3.47;1.30;;;;;;;;;;4975052;28;20438;-77
2021/07/06 02:34:16;;;;;;;2.15;0.88;;;;;;;;;;4974896;28;20025;-77
2021/07/06 02:36:42;;;;;;;2.58;0.82;;;;;;;;;;4958060;28;20408;-78
2021/07/06 02:39:09;;;;;;;3.42;1.00;;;;;;;;;;4973867;28;20471;-78
2021/07/06 02:41:35;;;;;;;1.10;0.90;;;;;;;;;;4972749;28;20049;-77
2021/07/06 02:44:01;;;;;;;2.38;0.82;;;;;;;;;;4973097;28;20524;-77
2021/07/06 02:46:27;;;;;;;2.03;0.90;;;;;;;;;;4974936;28;20042;-77
2021/07/06 02:48:53;;;;;;;1.85;0.85;;;;;;;;;;4976685;28;20034;-77
2021/07/06 02:51:19;;;;;;;4.20;1.23;;;;;;;;;;4974778;28;20054;-77
2021/07/06 02:53:46;;;;;;;2.85;0.93;;;;;;;;;;4971480;28;20027;-77
2021/07/06 02:56:12;;;;;;;3.30;1.10;;;;;;;;;;4980954;28;20030;-76
2021/07/06 02:58:39;;;;;;;1.23;1.10;;;;;;;;;;4976269;28;20050;-77
2021/07/06 03:01:05;;;;;;;2.10;0.85;;;;;;;;;;4971760;28;20078;-76
2021/07/06 03:03:31;;;;;;;1.83;1.00;;;;;;;;;;4972886;28;20912;-77
2021/07/06 03:05:57;;;;;;;3.97;0.80;;;;;;;;;;4973003;28;20031;-77
2021/07/06 03:08:25;;;;;;;3.03;0.98;;;;;;;;;;4972872;28;20492;-78
2021/07/06 03:10:51;;;;;;;1.85;1.02;;;;;;;;;;4972629;28;20034;-77
2021/07/06 03:13:17;;;;;;;3.63;1.00;;;;;;;;;;4971837;28;20138;-77
2021/07/06 03:15:43;;;;;;;4.13;1.10;;;;;;;;;;4971175;28;20078;-78
2021/07/06 03:18:10;;;;;;;1.42;0.98;;;;;;;;;;4971812;28;20034;-77
2021/07/06 03:20:36;;;;;;;3.13;1.00;;;;;;;;;;4970408;28;20039;-78
2021/07/06 03:23:03;;;;;;;1.20;0.82;;;;;;;;;;4972573;28;20027;-78
2021/07/06 03:25:29;;;;;;;3.20;1.02;;;;;;;;;;4957235;28;20031;-77
2021/07/06 03:27:56;;;;;;;2.95;0.90;;;;;;;;;;4978740;28;20035;-77
2021/07/06 03:30:24;;;;;;;7.13;1.27;;;;;;;;;;4971285;28;20034;-77
2021/07/06 03:32:51;;;;;;;3.33;1.00;;;;;;;;;;4971187;28;20022;-77
2021/07/06 03:35:18;;;;;;;3.40;1.10;;;;;;;;;;4972015;28;20488;-77
2021/07/06 03:37:44;;;;;;;5.75;1.25;;;;;;;;;;4971750;28;20065;-78
2021/07/06 03:40:11;;;;;;;3.38;1.00;;;;;;;;;;4972070;28;20050;-79
2021/07/06 03:42:37;;;;;;;3.50;1.20;;;;;;;;;;4955950;28;20040;-78
2021/07/06 03:45:04;;;;;;;5.35;1.15;;;;;;;;;;4971177;28;20037;-78
2021/07/06 03:47:30;;;;;;;3.40;0.80;;;;;;;;;;4970319;28;20010;-78
2021/07/06 03:49:56;;;;;;;3.05;1.00;;;;;;;;;;4952334;28;20026;-78
2021/07/06 03:52:22;;;;;;;1.92;0.98;;;;;;;;;;4972295;28;20502;-79
2021/07/06 03:54:48;;;;;;;5.68;1.35;;;;;;;;;;4971261;28;20118;-79
2021/07/06 03:57:14;;;;;;;1.55;0.90;;;;;;;;;;4966489;28;20126;-78
2021/07/06 03:59:40;;;;;;;5.30;1.00;;;;;;;;;;4971270;28;20105;-79
2021/07/06 04:02:06;;;;;;;1.58;0.80;;;;;;;;;;4955288;28;20474;-77
2021/07/06 04:04:32;;;;;;;3.00;0.70;;;;;;;;;;4972367;28;20105;-78
2021/07/06 04:06:58;;;;;;;2.88;1.00;;;;;;;;;;4971154;28;20027;-79
2021/07/06 04:09:24;;;;;;;4.68;1.67;;;;;;;;;;4972183;28;20109;-79
2021/07/06 04:11:50;;;;;;;2.58;1.00;;;;;;;;;;4954005;28;20509;-79
2021/07/06 04:14:16;;;;;;;2.90;1.08;;;;;;;;;;4971818;28;20037;-79
2021/07/06 04:16:42;;;;;;;5.55;1.10;;;;;;;;;;4972078;28;20041;-79
2021/07/06 04:19:08;;;;;;;5.30;1.30;;;;;;;;;;4954566;28;20034;-79
2021/07/06 04:21:35;;;;;;;1.15;0.80;;;;;;;;;;4972382;28;20078;-79
2021/07/06 04:24:01;;;;;;;3.42;1.00;;;;;;;;;;4972665;28;20029;-79
2021/07/06 04:26:27;;;;;;;4.15;0.80;;;;;;;;;;4982928;28;20023;-79
2021/07/06 04:28:53;;;;;;;3.20;0.85;;;;;;;;;;4974856;28;20054;-79
2021/07/06 04:31:19;;;;;;;5.43;0.90;;;;;;;;;;4971567;28;20031;-79
2021/07/06 04:33:45;;;;;;;2.33;0.90;;;;;;;;;;4974309;28;20030;-79
2021/07/06 04:36:11;;;;;;;3.83;1.00;;;;;;;;;;4973692;28;20027;-79
2021/07/06 04:38:37;;;;;;;2.60;1.10;;;;;;;;;;4971167;28;20027;-80
2021/07/06 04:41:03;;;;;;;2.20;1.00;;;;;;;;;;4971166;28;20023;-78
2021/07/06 04:43:29;;;;;;;1.02;0.68;;;;;;;;;;4968752;28;20030;-77
2021/07/06 04:45:55;;;;;;;2.60;0.93;;;;;;;;;;4969468;28;20050;-77
2021/07/06 04:48:21;;;;;;;2.25;1.05;;;;;;;;;;4969571;28;20739;-77
2021/07/06 04:50:47;;;;;;;2.53;0.90;;;;;;;;;;4969142;28;20550;-77
2021/07/06 04:53:14;;;;;;;2.10;0.98;;;;;;;;;;4970221;28;20038;-78
2021/07/06 04:55:40;;;;;;;1.90;0.90;;;;;;;;;;4973855;28;20054;-77
2021/07/06 04:58:06;;;;;;;3.50;1.10;;;;;;;;;;4956931;28;20031;-77
2021/07/06 05:00:32;;;;;;;8.73;1.30;;;;;;;;;;4972898;28;20030;-78
2021/07/06 05:02:59;;;;;;;4.28;1.35;;;;;;;;;;4967004;28;20031;-77
2021/07/06 05:05:26;;;;;;;5.93;1.10;;;;;;;;;;4972781;28;20595;-76
2021/07/06 05:07:54;;;;;;;1.90;1.08;;;;;;;;;;4970662;28;20605;-77
2021/07/06 05:10:20;;;;;;;6.72;1.10;;;;;;;;;;4968955;28;20023;-76
2021/07/06 05:12:47;;;;;;;4.95;1.90;;;;;;;;;;4969701;28;20023;-76
2021/07/06 05:15:13;;;;;;;3.40;1.30;;;;;;;;;;4969728;28;20078;-77
2021/07/06 05:17:39;;;;;;;2.83;0.80;;;;;;;;;;4969420;28;20041;-76
2021/07/06 05:20:05;;;;;;;2.03;1.00;;;;;;;;;;4968857;28;20035;-76
2021/07/06 05:22:31;;;;;;;2.45;1.00;;;;;;;;;;4969655;28;20062;-76
2021/07/06 05:24:57;;;;;;;3.05;1.20;;;;;;;;;;4971894;28;20046;-76
2021/07/06 05:27:23;;;;;;;1.45;0.73;;;;;;;;;;4990123;28;20030;-77
2021/07/06 05:29:49;;;;;;;2.35;0.80;;;;;;;;;;4975279;28;20062;-77
2021/07/06 05:32:20;;;;;;;4.57;0.98;;;;;;;;;;4971653;28;20034;-77
2021/07/06 05:34:46;;;;;;;2.45;1.00;;;;;;;;;;4953634;28;20031;-75
2021/07/06 05:37:12;;;;;;;1.48;0.70;;;;;;;;;;4970147;28;20455;-76
2021/07/06 05:39:38;;;;;;;2.03;0.80;;;;;;;;;;4969466;28;20030;-77
2021/07/06 05:42:04;;;;;;;1.55;0.73;;;;;;;;;;4969647;28;20448;-76
2021/07/06 05:44:31;;;;;;;1.65;0.77;;;;;;;;;;4968175;28;20035;-76
2021/07/06 05:46:57;;;;;;;2.40;0.93;;;;;;;;;;4969226;28;20026;-76
2021/07/06 05:49:23;;;;;;;2.10;0.52;;;;;;;;;;4967948;28;20125;-76
2021/07/06 05:51:50;;;;;;;4.72;1.10;;;;;;;;;;4968217;28;20122;-76
2021/07/06 05:54:16;;;;;;;1.52;0.63;;;;;;;;;;4970215;28;20031;-77
2021/07/06 05:56:42;;;;;;;5.13;0.88;;;;;;;;;;4971414;28;20061;-77
2021/07/06 05:59:08;;;;;;;1.58;0.70;;;;;;;;;;4971671;28;20058;-76
2021/07/06 06:01:34;;;;;;;1.55;0.80;;;;;;;;;;4969031;28;20027;-77
2021/07/06 06:04:01;;;;;;;2.72;0.80;;;;;;;;;;4964053;28;20049;-76
2021/07/06 06:06:27;;;;;;;2.10;0.60;;;;;;;;;;4971304;28;20030;-76
2021/07/06 06:08:53;;;;;;;2.55;0.70;;;;;;;;;;4970884;28;20115;-80
2021/07/06 06:11:19;;;;;;;4.30;1.02;;;;;;;;;;4957540;28;20041;-77
2021/07/06 06:13:45;;;;;;;1.52;0.90;;;;;;;;;;4982943;28;20022;-79
2021/07/06 06:16:11;;;;;;;1.92;0.82;;;;;;;;;;4965866;28;20466;-77
2021/07/06 06:18:37;;;;;;;6.25;1.08;;;;;;;;;;4968630;28;20038;-80
2021/07/06 06:21:03;;;;;;;5.35;1.38;;;;;;;;;;4971566;28;20030;-79
2021/07/06 06:23:29;;;;;;;8.98;1.20;;;;;;;;;;4971114;28;20027;-77
2021/07/06 06:25:55;;;;;;;4.60;0.98;;;;;;;;;;4977367;28;20850;-76
2021/07/06 06:28:22;;;;;;;3.42;0.90;;;;;;;;;;4966227;28;20037;-76
2021/07/06 06:30:48;;;;;;;7.38;1.17;;;;;;;;;;4969812;28;20447;-76
2021/07/06 06:33:14;;;;;;;1.98;1.13;;;;;;;;;;4970172;28;20042;-77
2021/07/06 06:35:41;;;;;;;7.30;1.00;;;;;;;;;;4969529;28;20035;-78
2021/07/06 06:38:07;;;;;;;2.40;0.70;;;;;;;;;;4970128;28;20058;-76
2021/07/06 06:40:33;;;;;;;5.28;0.77;;;;;;;;;;4969098;28;20027;-76
2021/07/06 06:42:59;;;;;;;3.53;1.02;;;;;;;;;;4970172;28;20050;-75
2021/07/06 06:45:30;;;;;;;1.70;0.77;;;;;;;;;;4970887;28;20858;-78
2021/07/06 06:47:56;;;;;;;4.28;1.00;;;;;;;;;;4972451;28;20026;-79
2021/07/06 06:50:22;;;;;;;3.03;1.15;;;;;;;;;;4946418;29;20039;-78
2021/07/06 06:52:48;;;;;;;2.40;0.80;;;;;;;;;;4967600;28;20231;-77
2021/07/06 06:55:14;;;;;;;1.08;0.70;;;;;;;;;;4974165;28;20046;-77
2021/07/06 06:57:40;;;;;;;2.70;0.90;;;;;;;;;;4993495;28;20031;-76
2021/07/06 07:00:08;;;;;;;3.63;0.90;;;;;;;;;;4974387;28;20039;-76
2021/07/06 07:02:34;;;;;;;3.22;0.95;;;;;;;;;;4973468;28;20023;-77
2021/07/06 07:05:00;;;;;;;1.52;0.70;;;;;;;;;;4974398;28;20026;-76
2021/07/06 07:07:26;;;;;;;3.35;0.73;;;;;;;;;;4973947;28;20078;-76
2021/07/06 07:09:53;;;;;;;3.38;0.80;;;;;;;;;;4973586;28;20031;-74
2021/07/06 07:12:19;;;;;;;3.95;0.95;;;;;;;;;;4975496;28;20031;-78
2021/07/06 07:14:46;;;;;;;4.13;0.90;;;;;;;;;;4955370;29;20039;-76
2021/07/06 07:17:12;;;;;;;3.22;0.80;;;;;;;;;;4953421;29;20031;-74
2021/07/06 07:19:39;;;;;;;2.90;0.80;;;;;;;;;;4966541;28;20023;-77
2021/07/06 07:22:06;;;;;;;1.58;0.80;;;;;;;;;;4954197;28;20022;-76
2021/07/06 07:24:32;;;;;;;4.47;0.95;;;;;;;;;;4951794;29;20019;-77
2021/07/06 07:26:58;;;;;;;3.53;1.13;;;;;;;;;;4982192;28;20026;-77
2021/07/06 07:29:24;;;;;;;0.95;0.60;;;;;;;;;;4978096;28;20041;-77
2021/07/06 07:31:50;;;;;;;3.17;1.13;;;;;;;;;;4971742;28;20113;-76
2021/07/06 07:34:16;;;;;;;4.63;1.45;;;;;;;;;;4971546;28;20066;-77
2021/07/06 07:36:42;;;;;;;5.50;1.33;;;;;;;;;;4969968;28;20133;-77
2021/07/06 07:39:09;;;;;;;2.72;1.23;;;;;;;;;;4971163;28;20045;-76
2021/07/06 07:41:35;;;;;;;5.60;1.05;;;;;;;;;;4971215;28;20110;-76
2021/07/06 07:44:01;;;;;;;2.78;1.10;;;;;;;;;;4971490;28;20456;-75
2021/07/06 07:46:28;;;;;;;1.80;0.90;;;;;;;;;;4970904;28;20085;-75
2021/07/06 07:48:54;;;;;;;2.03;1.00;;;;;;;;;;4970254;28;20138;-76
2021/07/06 07:51:20;;;;;;;4.43;1.15;;;;;;;;;;4971508;28;20125;-77
2021/07/06 07:53:46;;;;;;;2.63;1.20;;;;;;;;;;4970820;28;20474;-77
2021/07/06 07:56:13;;;;;;;3.47;1.10;;;;;;;;;;4979917;28;20535;-75
2021/07/06 07:58:39;;;;;;;3.10;1.10;;;;;;;;;;4984550;28;20061;-77
2021/07/06 08:01:06;;;;;;;2.97;1.30;;;;;;;;;;4953399;28;20073;-77
2021/07/06 08:03:32;;;;;;;4.85;1.17;;;;;;;;;;4970969;28;20596;-74
2021/07/06 08:05:58;;;;;;;5.82;0.98;;;;;;;;;;4969965;28;20031;-75
2021/07/06 08:08:24;;;;;;;3.85;1.02;;;;;;;;;;4970684;28;20062;-76
2021/07/06 08:10:54;;;;;;;3.97;1.15;;;;;;;;;;4970852;28;20034;-75
2021/07/06 08:13:24;;;;;;;4.85;1.50;;;;;;;;;;4970717;28;20031;-76
2021/07/06 08:15:51;;;;;;;2.30;1.10;;;;;;;;;;4970973;28;20023;-76
2021/07/06 08:18:17;;;;;;;4.70;1.52;;;;;;;;;;4970545;28;20408;-75
2021/07/06 08:20:44;;;;;;;4.20;1.15;;;;;;;;;;4972148;28;20542;-77
2021/07/06 08:23:10;;;;;;;2.63;1.02;;;;;;;;;;4971446;28;20089;-77
2021/07/06 08:25:36;;;;;;;3.70;1.35;;;;;;;;;;4976207;28;20062;-75
2021/07/06 08:28:02;;;;;;;2.50;1.13;;;;;;;;;;4976610;28;20114;-77
2021/07/06 08:30:28;;;;;;;2.40;1.13;;;;;;;;;;4971988;28;20029;-74
2021/07/06 08:32:54;;;;;;;5.28;1.27;;;;;;;;;;4973180;28;20572;-78
2021/07/06 08:35:20;;;;;;;3.92;1.50;;;;;;;;;;4974777;28;20543;-76
2021/07/06 08:37:46;;;;;;;2.42;1.33;;;;;;;;;;4975337;28;20396;-76
2021/07/06 08:40:13;;;;;;;3.80;1.55;;;;;;;;;;4958108;28;20539;-79
2021/07/06 08:42:39;;;;;;;4.93;1.50;;;;;;;;;;4975647;28;20081;-78
2021/07/06 08:45:07;;;;;;;4.25;1.50;;;;;;;;;;4974969;28;20038;-77
2021/07/06 08:47:33;;;;;;;5.40;1.92;;;;;;;;;;4972433;28;20412;-79
2021/07/06 08:50:01;;;;;;;3.30;1.63;;;;;;;;;;4960523;28;20042;-76
2021/07/06 08:52:27;;;;;;;3.00;2.08;;;;;;;;;;4969354;28;20105;-76
2021/07/06 08:54:54;;;;;;;8.35;2.60;;;;;;;;;;4972583;28;20038;-77
2021/07/06 08:57:23;;;;;;;5.40;2.80;;;;;;;;;;4989151;28;20038;-76
2021/07/06 08:59:49;;;;;;;9.73;3.03;;;;;;;;;;4974200;28;20515;-77
2021/07/06 09:02:20;;;;;;;6.32;3.28;;;;;;;;;;4971246;28;20035;-77
2021/07/06 09:04:47;;;;;;;12.68;3.67;;;;;;;;;;4970071;28;20019;-76
2021/07/06 09:07:13;;;;;;;6.30;3.10;;;;;;;;;;4970730;28;20031;-77
2021/07/06 09:09:40;;;;;;;8.57;3.45;;;;;;;;;;4969283;28;20122;-77
2021/07/06 09:12:07;;;;;;;7.20;3.38;;;;;;;;;;4970280;28;20037;-76
2021/07/06 09:14:33;;;;;;;9.80;2.97;;;;;;;;;;4970298;28;20050;-77
2021/07/06 09:17:16;;;;;;;3.72;2.17;;;;;;;;;;4969424;28;20022;-77
2021/07/06 09:19:43;;;;;;;7.07;3.17;;;;;;;;;;4969217;28;20027;-77
2021/07/06 09:22:33;;;;;;;4.95;2.42;;;;;;;;;;4973322;28;20023;-76
2021/07/06 09:24:59;;;;;;;5.80;2.25;;;;;;;;;;4971980;28;20031;-77
2021/07/06 09:27:29;;;;;;;4.60;2.08;;;;;;;;;;4992503;28;20049;-76
2021/07/06 09:30:05;;;;;;;5.90;1.80;;;;;;;;;;4974994;28;20461;-77
2021/07/06 09:32:31;;;;;;;5.57;1.60;;;;;;;;;;4972071;28;20492;-77
2021/07/06 09:34:57;;;;;;;1.77;1.50;;;;;;;;;;4971817;28;20054;-77
2021/07/06 09:37:23;;;;;;;2.17;1.40;;;;;;;;;;4972087;28;20093;-75
2021/07/06 09:39:49;;;;;;;3.40;1.70;;;;;;;;;;4970940;28;20031;-76
2021/07/06 09:42:15;;;;;;;4.00;1.55;;;;;;;;;;4970218;28;20046;-77
2021/07/06 09:44:42;;;;;;;12.13;1.98;;;;;;;;;;4970995;28;20065;-77
2021/07/06 09:47:09;;;;;;;4.30;1.30;;;;;;;;;;4971488;28;20034;-77
2021/07/06 09:49:34;;;;;;;2.17;1.40;;;;;;;;;;4969747;28;20435;-77
2021/07/06 09:52:10;;;;;;;2.47;1.30;;;;;;;;;;4970264;28;20026;-77
2021/07/06 09:54:37;;;;;;;3.42;1.40;;;;;;;;;;4970821;28;20031;-77
2021/07/06 09:57:11;;;;;;;2.10;1.58;;;;;;;;;;4958038;28;20130;-77
2021/07/06 09:59:37;;;;;;;3.10;1.55;;;;;;;;;;4970478;28;20058;-76
2021/07/06 10:02:04;;;;;;;3.67;1.58;;;;;;;;;;4973280;28;20030;-77
2021/07/06 10:04:30;;;;;;;2.42;1.48;;;;;;;;;;4961468;28;20106;-77
2021/07/06 10:06:58;;;;;;;4.05;1.27;;;;;;;;;;4971646;28;20026;-77
2021/07/06 10:09:26;;;;;;;1.17;1.00;;;;;;;;;;4970348;28;20484;-77
2021/07/06 10:11:52;;;;;;;5.60;1.20;;;;;;;;;;4968410;28;20035;-76
2021/07/06 10:14:19;;;;;;;3.83;1.50;;;;;;;;;;4969757;28;20038;-76
2021/07/06 10:16:45;;;;;;;2.88;1.27;;;;;;;;;;4970381;28;20759;-79
2021/07/06 10:19:12;;;;;;;4.03;1.02;;;;;;;;;;4971648;28;20026;-79
2021/07/06 10:21:38;;;;;;;4.30;1.10;;;;;;;;;;4972954;28;20484;-77
2021/07/06 10:24:04;;;;;;;1.63;1.10;;;;;;;;;;4970397;28;20026;-77
2021/07/06 10:26:31;;;;;;;2.63;1.33;;;;;;;;;;4980366;28;20096;-77
2021/07/06 10:28:58;;;;;;;2.13;1.27;;;;;;;;;;4962839;28;20049;-76
2021/07/06 10:31:24;;;;;;;4.82;1.33;;;;;;;;;;4971652;28;20757;-76
2021/07/06 10:33:51;;;;;;;3.65;1.08;;;;;;;;;;4973002;28;20046;-77
2021/07/06 10:36:17;;;;;;;2.33;1.10;;;;;;;;;;4974129;28;20034;-77
2021/07/06 10:38:45;;;;;;;3.00;1.00;;;;;;;;;;4974190;28;20420;-78
2021/07/06 10:41:12;;;;;;;3.03;0.85;;;;;;;;;;4974565;28;20512;-77
2021/07/06 10:43:41;;;;;;;2.85;1.30;;;;;;;;;;4974962;28;20106;-77
2021/07/06 10:46:16;;;;;;;2.08;1.02;;;;;;;;;;4973642;28;20790;-77
2021/07/06 10:48:42;;;;;;;4.00;1.00;;;;;;;;;;4972443;28;20051;-77
2021/07/06 10:51:09;;;;;;;2.38;0.60;;;;;;;;;;4972807;28;20082;-74
2021/07/06 10:53:35;;;;;;;1.52;0.85;;;;;;;;;;4955694;28;20126;-77
2021/07/06 10:56:15;;;;;;;1.80;1.00;;;;;;;;;;4977722;28;20035;-77
2021/07/06 10:58:58;;;;;;;1.45;0.70;;;;;;;;;;4971266;28;20118;-77
2021/07/06 11:01:36;;;;;;;1.67;0.80;;;;;;;;;;4972221;28;20023;-77
2021/07/06 11:04:03;;;;;;;1.48;0.75;;;;;;;;;;4971530;28;20094;-77
2021/07/06 11:06:44;;;;;;;3.25;0.70;;;;;;;;;;4971685;28;20637;-77
2021/07/06 11:09:11;;;;;;;1.35;0.65;;;;;;;;;;4970808;28;20119;-77
2021/07/06 11:11:37;;;;;;;2.67;0.80;;;;;;;;;;4972374;28;20066;-77
2021/07/06 11:14:32;;;;;;;0.95;0.50;;;;;;;;;;4971620;28;20426;-76
2021/07/06 11:16:59;;;;;;;3.42;0.80;;;;;;;;;;4957785;28;20047;-76
2021/07/06 11:19:35;;;;;;;2.70;0.80;;;;;;;;;;4972944;28;20055;-76
2021/07/06 11:22:17;;;;;;;4.35;1.10;;;;;;;;;;4980262;28;20037;-77
2021/07/06 11:24:43;;;;;;;2.47;0.90;;;;;;;;;;4983413;28;20090;-77
2021/07/06 11:27:10;;;;;;;2.67;0.93;;;;;;;;;;4994385;28;20030;-78
2021/07/06 11:29:37;;;;;;;3.47;1.00;;;;;;;;;;4977677;28;20070;-77
2021/07/06 11:32:06;;;;;;;3.17;0.75;;;;;;;;;;4969661;28;20542;-78
2021/07/06 11:34:35;;;;;;;2.83;0.70;;;;;;;;;;4970838;28;20077;-78
2021/07/06 11:37:12;;;;;;;2.92;0.95;;;;;;;;;;4972812;28;20031;-78
2021/07/06 11:39:38;;;;;;;3.33;0.80;;;;;;;;;;4971679;28;20031;-78
2021/07/06 11:42:04;;;;;;;0.98;0.73;;;;;;;;;;4972003;28;20090;-77
2021/07/06 11:44:30;;;;;;;3.38;0.70;;;;;;;;;;4972484;28;20027;-77
2021/07/06 11:47:07;;;;;;;2.65;0.65;;;;;;;;;;4972357;28;20031;-77
2021/07/06 11:49:33;;;;;;;1.48;0.93;;;;;;;;;;4960753;28;20653;-76
2021/07/06 11:52:00;;;;;;;1.90;0.70;;;;;;;;;;4974074;28;20093;-77
2021/07/06 11:54:26;;;;;;;1.25;0.70;;;;;;;;;;4973761;28;20022;-76
2021/07/06 11:57:01;;;;;;;3.67;1.10;;;;;;;;;;4985786;28;20041;-77
2021/07/06 11:59:27;;;;;;;6.28;1.02;;;;;;;;;;4978010;28;20150;-77
2021/07/06 12:02:09;;;;;;;2.67;0.77;;;;;;;;;;4972001;28;20657;-77
2021/07/06 12:04:36;;;;;;;2.58;0.75;;;;;;;;;;4954543;28;20038;-77
2021/07/06 12:07:03;;;;;;;1.52;0.90;;;;;;;;;;4970863;28;20031;-77
2021/07/06 12:09:29;;;;;;;1.90;0.85;;;;;;;;;;4971253;28;20076;-77
2021/07/06 12:12:06;;;;;;;0.80;0.70;;;;;;;;;;4954341;28;20526;-78
2021/07/06 12:14:32;;;;;;;2.85;0.90;;;;;;;;;;4972168;28;20030;-77
2021/07/06 12:16:59;;;;;;;2.13;0.90;;;;;;;;;;4971713;28;20030;-77
2021/07/06 12:19:28;;;;;;;1.40;0.80;;;;;;;;;;4952536;28;20073;-77
2021/07/06 12:21:55;;;;;;;1.00;0.80;;;;;;;;;;4971920;28;20015;-76
2021/07/06 12:24:23;;;;;;;1.67;0.80;;;;;;;;;;4970929;28;20038;-76
2021/07/06 12:26:56;;;;;;;5.78;0.90;;;;;;;;;;4960250;28;20444;-77
2021/07/06 12:29:40;;;;;;;3.67;0.75;;;;;;;;;;4970403;28;20038;-77
2021/07/06 12:32:11;;;;;;;4.68;0.98;;;;;;;;;;4985447;28;20030;-77
2021/07/06 12:34:53;;;;;;;3.25;0.75;;;;;;;;;;4975651;28;20027;-77
2021/07/06 12:37:20;;;;;;;1.33;0.80;;;;;;;;;;4971717;28;20023;-77
2021/07/06 12:39:46;;;;;;;2.03;0.82;;;;;;;;;;4977849;28;20149;-77
2021/07/06 12:42:19;;;;;;;1.05;0.70;;;;;;;;;;4992967;28;20299;-77
2021/07/06 12:44:47;;;;;;;5.22;0.90;;;;;;;;;;4959491;28;20031;-77
2021/07/06 12:47:13;;;;;;;3.20;0.90;;;;;;;;;;4969376;28;20034;-77
2021/07/06 12:49:39;;;;;;;1.30;0.82;;;;;;;;;;4969910;28;20522;-76
2021/07/06 12:52:06;;;;;;;1.95;0.88;;;;;;;;;;4970217;28;20039;-77
2021/07/06 12:54:33;;;;;;;2.38;0.95;;;;;;;;;;4970132;28;20027;-77
2021/07/06 12:57:00;;;;;;;2.40;1.00;;;;;;;;;;4984624;28;20038;-76
2021/07/06 12:59:27;;;;;;;4.05;1.20;;;;;;;;;;4976237;28;20754;-77
2021/07/06 13:01:54;;;;;;;8.63;1.13;;;;;;;;;;4952566;28;20019;-76
2021/07/06 13:04:23;;;;;;;1.92;1.17;;;;;;;;;;4952840;28;20023;-76
2021/07/06 13:06:50;;;;;;;2.40;1.10;;;;;;;;;;4969872;28;20023;-76
2021/07/06 13:09:25;;;;;;;2.75;1.00;;;;;;;;;;4968534;28;20086;-76
2021/07/06 13:11:52;;;;;;;2.05;0.90;;;;;;;;;;4969149;28;20030;-76
2021/07/06 13:14:19;;;;;;;5.80;1.30;;;;;;;;;;4951626;28;20447;-77
2021/07/06 13:16:45;;;;;;;5.20;1.70;;;;;;;;;;4968863;28;20027;-76
2021/07/06 13:19:21;;;;;;;3.55;1.30;;;;;;;;;;4968279;28;20118;-77
2021/07/06 13:21:47;;;;;;;2.08;1.13;;;;;;;;;;4969894;28;20031;-75
2021/07/06 13:24:13;;;;;;;3.45;1.13;;;;;;;;;;4969622;28;20038;-77
2021/07/06 13:26:39;;;;;;;5.53;1.52;;;;;;;;;;4980905;28;20031;-76
2021/07/06 13:29:05;;;;;;;2.65;1.30;;;;;;;;;;4978745;28;20029;-76
2021/07/06 13:31:32;;;;;;;3.35;1.40;;;;;;;;;;4970572;28;20452;-77
2021/07/06 13:33:58;;;;;;;2.53;1.50;;;;;;;;;;4970840;28;20030;-76
2021/07/06 13:36:25;;;;;;;2.15;1.30;;;;;;;;;;4970598;28;20031;-76
2021/07/06 13:38:51;;;;;;;2.45;1.33;;;;;;;;;;4963456;28;20498;-77
2021/07/06 13:41:17;;;;;;;4.70;1.88;;;;;;;;;;4970647;28;20496;-76
2021/07/06 13:43:43;;;;;;;4.82;1.92;;;;;;;;;;4970021;28;20046;-77
2021/07/06 13:46:09;;;;;;;5.55;2.30;;;;;;;;;;4969122;28;20022;-77
2021/07/06 13:48:35;;;;;;;3.13;1.70;;;;;;;;;;4969154;28;20102;-75
2021/07/06 13:51:02;;;;;;;2.05;1.20;;;;;;;;;;4968824;28;20669;-76
2021/07/06 13:53:28;;;;;;;3.72;1.15;;;;;;;;;;4968776;28;20033;-77
2021/07/06 13:55:56;;;;;;;2.40;1.10;;;;;;;;;;4965969;28;20118;-77
2021/07/06 13:58:22;;;;;;;1.67;1.23;;;;;;;;;;4968710;28;20310;-77
2021/07/06 14:00:48;;;;;;;2.90;1.30;;;;;;;;;;4968623;28;20031;-77
2021/07/06 14:03:14;;;;;;;2.17;1.23;;;;;;;;;;4971027;28;20023;-77
2021/07/06 14:05:41;;;;;;;7.05;1.52;;;;;;;;;;4969631;28;20084;-78
2021/07/06 14:08:08;;;;;;;1.67;0.93;;;;;;;;;;4969930;28;20427;-76
2021/07/06 14:10:34;;;;;;;2.75;1.25;;;;;;;;;;4966465;28;20039;-77
2021/07/06 14:13:00;;;;;;;2.33;1.15;;;;;;;;;;4967351;28;20480;-77
2021/07/06 14:15:26;;;;;;;2.08;1.30;;;;;;;;;;4970321;28;20035;-77
2021/07/06 14:17:52;;;;;;;6.18;1.48;;;;;;;;;;4969775;28;20022;-78
2021/07/06 14:20:18;;;;;;;2.63;1.25;;;;;;;;;;4970061;28;20369;-77
2021/07/06 14:22:44;;;;;;;2.38;0.98;;;;;;;;;;4978016;28;20177;-78
2021/07/06 14:25:11;;;;;;;2.97;1.20;;;;;;;;;;4971103;28;20503;-78
2021/07/06 14:27:38;;;;;;;1.75;1.08;;;;;;;;;;4989832;28;20030;-76
2021/07/06 14:30:04;;;;;;;3.22;0.98;;;;;;;;;;4974281;28;20035;-77
2021/07/06 14:32:37;;;;;;;1.95;0.80;;;;;;;;;;4983494;28;20117;-77
2021/07/06 14:35:04;;;;;;;1.88;0.85;;;;;;;;;;4976934;28;20077;-80
2021/07/06 14:37:30;;;;;;;1.67;0.80;;;;;;;;;;4966446;28;20031;-79
2021/07/06 14:39:56;;;;;;;5.63;1.13;;;;;;;;;;4972553;28;20126;-79
2021/07/06 14:42:22;;;;;;;2.63;0.60;;;;;;;;;;4973498;28;20034;-78